Time,TemperatureF,DewpointF,PressureIn,WindDirection,WindDirectionDegrees,WindSpeedMPH,WindSpeedGustMPH,Humidity,HourlyPrecipIn,Conditions,Clouds,dailyrainin,SoftwareType,DateUTC
2013-08-29 00:21:00,69.0,50.0,29.66,West,269,0.0,-999.0,50,-99.99,,,-99.99,,2013-08-29 06:21:00,
2013-08-29 00:43:00,69.0,49.0,29.67,West,269,0.0,-999.0,49,-99.99,,,-99.99,,2013-08-29 06:43:00,
2013-08-29 00:52:00,68.0,49.0,29.67,West,269,0.0,-999.0,50,-99.99,,,-99.99,,2013-08-29 06:52:00,
2013-08-29 01:12:00,67.0,49.0,29.67,West,269,0.0,-999.0,53,-99.99,,,-99.99,,2013-08-29 07:12:00,
2013-08-29 01:21:00,67.0,50.0,29.68,West,269,0.0,-999.0,54,-99.99,,,-99.99,,2013-08-29 07:21:00,
2013-08-29 01:42:00,66.0,50.0,29.68,West,269,1.0,-999.0,56,-99.99,,,-99.99,,2013-08-29 07:42:00,
2013-08-29 01:53:00,65.0,50.0,29.69,West,269,0.0,-999.0,59,-99.99,,,-99.99,,2013-08-29 07:53:00,
2013-08-29 02:12:00,65.0,50.0,29.68,West,281,0.0,-999.0,59,-99.99,,,-99.99,,2013-08-29 08:12:00,
2013-08-29 02:22:00,66.0,49.0,29.67,WNW,289,1.0,-999.0,55,-99.99,,,-99.99,,2013-08-29 08:22:00,
2013-08-29 02:42:00,64.0,49.0,29.68,WNW,289,2.0,-999.0,59,-99.99,,,-99.99,,2013-08-29 08:42:00,
2013-08-29 02:52:00,65.0,48.0,29.68,NNW,342,1.0,-999.0,55,-99.99,,,-99.99,,2013-08-29 08:52:00,
2013-08-29 03:12:00,65.0,49.0,29.66,North,359,2.0,-999.0,57,-99.99,,,-99.99,,2013-08-29 09:12:00,
2013-08-29 03:21:00,63.0,50.0,29.67,North,359,1.0,-999.0,62,-99.99,,,-99.99,,2013-08-29 09:21:00,
2013-08-29 03:43:00,62.0,50.0,29.68,North,359,3.0,-999.0,64,-99.99,,,-99.99,,2013-08-29 09:43:00,
2013-08-29 03:54:00,61.0,49.0,29.68,North,359,3.0,-999.0,65,-99.99,,,-99.99,,2013-08-29 09:54:00,
2013-08-29 04:14:00,61.0,50.0,29.68,North,359,1.0,-999.0,66,-99.99,,,-99.99,,2013-08-29 10:14:00,
2013-08-29 04:24:00,61.0,50.0,29.69,North,359,1.0,-999.0,66,-99.99,,,-99.99,,2013-08-29 10:24:00,
2013-08-29 05:22:00,61.0,50.0,29.69,North,359,5.0,-999.0,68,-99.99,,,-99.99,,2013-08-29 11:22:00,
2013-08-29 05:42:00,61.0,50.0,29.69,North,359,2.0,-999.0,68,-99.99,,,-99.99,,2013-08-29 11:42:00,
2013-08-29 05:52:00,61.0,50.0,29.70,North,359,3.0,-999.0,68,-99.99,,,-99.99,,2013-08-29 11:52:00,
2013-08-29 06:11:00,61.0,50.0,29.70,North,359,1.0,-999.0,68,-99.99,,,-99.99,,2013-08-29 12:11:00,
2013-08-29 06:22:00,62.0,51.0,29.69,North,359,3.0,-999.0,67,-99.99,,,-99.99,,2013-08-29 12:22:00,
2013-08-29 06:42:00,62.0,51.0,29.70,North,359,3.0,-999.0,67,-99.99,,,-99.99,,2013-08-29 12:42:00,
2013-08-29 06:52:00,62.0,51.0,29.69,North,359,4.0,-999.0,66,-99.99,,,-99.99,,2013-08-29 12:52:00,
2013-08-29 07:12:00,62.0,51.0,29.71,North,359,4.0,-999.0,66,-99.99,,,-99.99,,2013-08-29 13:12:00,
2013-08-29 07:22:00,62.0,51.0,29.71,North,359,4.0,-999.0,68,-99.99,,,-99.99,,2013-08-29 13:22:00,
2013-08-29 07:42:00,62.0,51.0,29.72,North,359,4.0,-999.0,68,-99.99,,,-99.99,,2013-08-29 13:42:00,
2013-08-29 07:52:00,62.0,51.0,29.73,North,359,3.0,-999.0,68,-99.99,,,-99.99,,2013-08-29 13:52:00,
2013-08-29 08:11:00,62.0,52.0,29.75,North,359,0.0,-999.0,69,-99.99,,,-99.99,,2013-08-29 14:11:00,
2013-08-29 08:21:00,63.0,52.0,29.76,North,359,0.0,-999.0,68,-99.99,,,-99.99,,2013-08-29 14:21:00,
2013-08-29 08:42:00,64.0,52.0,29.76,North,359,1.0,-999.0,65,-99.99,,,-99.99,,2013-08-29 14:42:00,
2013-08-29 08:52:00,66.0,51.0,29.76,North,359,4.0,-999.0,59,-99.99,,,-99.99,,2013-08-29 14:52:00,
2013-08-29 09:12:00,68.0,51.0,29.76,North,359,4.0,-999.0,55,-99.99,,,-99.99,,2013-08-29 15:12:00,
2013-08-29 09:21:00,70.0,52.0,29.76,North,359,1.0,-999.0,53,-99.99,,,-99.99,,2013-08-29 15:21:00,
2013-08-29 09:43:00,71.0,52.0,29.76,North,359,1.0,-999.0,52,-99.99,,,-99.99,,2013-08-29 15:43:00,
2013-08-29 09:53:00,72.0,52.0,29.75,North,1,2.0,-999.0,50,-99.99,,,-99.99,,2013-08-29 15:53:00,
2013-08-29 10:13:00,74.0,52.0,29.76,ENE,77,2.0,-999.0,47,-99.99,,,-99.99,,2013-08-29 16:13:00,
2013-08-29 10:24:00,74.0,52.0,29.77,ENE,74,2.0,-999.0,46,-99.99,,,-99.99,,2013-08-29 16:24:00,
2013-08-29 10:43:00,76.0,52.0,29.76,East,85,2.0,-999.0,43,-99.99,,,-99.99,,2013-08-29 16:43:00,
2013-08-29 10:53:00,77.0,51.0,29.75,SSE,152,2.0,-999.0,41,-99.99,,,-99.99,,2013-08-29 16:53:00,
2013-08-29 11:13:00,79.0,53.0,29.76,SSE,153,2.0,-999.0,40,-99.99,,,-99.99,,2013-08-29 17:13:00,
2013-08-29 11:22:00,80.0,51.0,29.77,ENE,60,2.0,-999.0,37,-99.99,,,-99.99,,2013-08-29 17:22:00,
2013-08-29 11:43:00,81.0,52.0,29.76,East,81,2.0,-999.0,37,-99.99,,,-99.99,,2013-08-29 17:43:00,
2013-08-29 11:52:00,81.0,52.0,29.76,NE,49,4.0,-999.0,36,-99.99,,,-99.99,,2013-08-29 17:52:00,
2013-08-29 12:12:00,82.0,52.0,29.75,North,3,2.0,-999.0,35,-99.99,,,-99.99,,2013-08-29 18:12:00,
2013-08-29 12:21:00,83.0,51.0,29.74,SE,127,2.0,-999.0,33,-99.99,,,-99.99,,2013-08-29 18:21:00,
2013-08-29 12:42:00,83.0,52.0,29.73,SSW,212,1.0,-999.0,34,-99.99,,,-99.99,,2013-08-29 18:42:00,
2013-08-29 12:52:00,83.0,51.0,29.72,South,182,2.0,-999.0,33,-99.99,,,-99.99,,2013-08-29 18:52:00,
2013-08-29 13:11:00,82.0,50.0,29.75,East,94,3.0,-999.0,33,-99.99,,,-99.99,,2013-08-29 19:11:00,
2013-08-29 13:22:00,84.0,50.0,29.75,SSW,194,2.0,-999.0,31,-99.99,,,-99.99,,2013-08-29 19:22:00,
2013-08-29 13:42:00,84.0,50.0,29.73,West,259,2.0,-999.0,31,-99.99,,,-99.99,,2013-08-29 19:42:00,
2013-08-29 13:52:00,85.0,50.0,29.73,SSE,151,2.0,-999.0,30,-99.99,,,-99.99,,2013-08-29 19:52:00,
2013-08-29 14:12:00,86.0,49.0,29.71,SW,229,3.0,-999.0,28,-99.99,,,-99.99,,2013-08-29 20:12:00,
2013-08-29 14:21:00,86.0,48.0,29.71,NW,305,4.0,-999.0,27,-99.99,,,-99.99,,2013-08-29 20:21:00,
2013-08-29 14:42:00,85.0,48.0,29.71,SW,229,4.0,-999.0,28,-99.99,,,-99.99,,2013-08-29 20:42:00,
2013-08-29 14:52:00,86.0,48.0,29.70,WSW,255,1.0,-999.0,27,-99.99,,,-99.99,,2013-08-29 20:52:00,
2013-08-29 15:12:00,87.0,49.0,29.71,South,179,2.0,-999.0,27,-99.99,,,-99.99,,2013-08-29 21:12:00,
2013-08-29 15:22:00,87.0,49.0,29.71,South,179,2.0,-999.0,27,-99.99,,,-99.99,,2013-08-29 21:22:00,
2013-08-29 15:44:00,88.0,50.0,29.68,SSW,193,2.0,-999.0,27,-99.99,,,-99.99,,2013-08-29 21:44:00,
2013-08-29 15:54:00,88.0,49.0,29.68,WSW,249,4.0,-999.0,26,-99.99,,,-99.99,,2013-08-29 21:54:00,
2013-08-29 16:14:00,88.0,48.0,29.69,South,173,3.0,-999.0,25,-99.99,,,-99.99,,2013-08-29 22:14:00,
2013-08-29 16:24:00,89.0,49.0,29.67,West,270,3.0,-999.0,25,-99.99,,,-99.99,,2013-08-29 22:24:00,
2013-08-29 16:43:00,88.0,48.0,29.67,SW,229,2.0,-999.0,25,-99.99,,,-99.99,,2013-08-29 22:43:00,
2013-08-29 16:53:00,88.0,49.0,29.67,SSW,205,4.0,-999.0,26,-99.99,,,-99.99,,2013-08-29 22:53:00,
2013-08-29 17:12:00,89.0,50.0,29.66,WSW,238,3.0,-999.0,26,-99.99,,,-99.99,,2013-08-29 23:12:00,
2013-08-29 17:22:00,88.0,49.0,29.65,West,261,3.0,-999.0,26,-99.99,,,-99.99,,2013-08-29 23:22:00,
2013-08-29 17:53:00,89.0,47.0,29.64,West,274,5.0,-999.0,24,-99.99,,,-99.99,,2013-08-29 23:53:00,
2013-08-29 18:12:00,89.0,47.0,29.65,West,267,4.0,-999.0,24,-99.99,,,-99.99,,2013-08-30 00:12:00,
2013-08-29 18:21:00,89.0,49.0,29.65,West,264,4.0,-999.0,25,-99.99,,,-99.99,,2013-08-30 00:21:00,
2013-08-29 18:42:00,89.0,49.0,29.65,West,271,8.0,-999.0,25,-99.99,,,-99.99,,2013-08-30 00:42:00,
2013-08-29 18:52:00,88.0,49.0,29.66,WSW,258,9.0,-999.0,26,-99.99,,,-99.99,,2013-08-30 00:52:00,
2013-08-29 19:12:00,85.0,48.0,29.67,WSW,237,8.0,-999.0,28,-99.99,,,-99.99,,2013-08-30 01:12:00,
2013-08-29 19:21:00,86.0,49.0,29.67,NW,306,4.0,-999.0,28,-99.99,,,-99.99,,2013-08-30 01:21:00,
2013-08-29 19:42:00,84.0,48.0,29.68,NNW,346,7.0,-999.0,29,-99.99,,,-99.99,,2013-08-30 01:42:00,
2013-08-29 19:52:00,82.0,49.0,29.70,North,1,5.0,-999.0,32,-99.99,,,-99.99,,2013-08-30 01:52:00,
2013-08-29 20:11:00,80.0,51.0,29.69,North,359,8.0,-999.0,36,-99.99,,,-99.99,,2013-08-30 02:11:00,
2013-08-29 20:21:00,80.0,51.0,29.70,North,358,6.0,-999.0,36,-99.99,,,-99.99,,2013-08-30 02:21:00,
2013-08-29 20:42:00,78.0,52.0,29.71,East,89,9.0,-999.0,41,-99.99,,,-99.99,,2013-08-30 02:42:00,